createdAt,value
2019-02-07T00:00:57.110Z,68.44
2019-02-07T00:01:57.104Z,68.02
2019-02-07T00:02:57.087Z,68.44
2019-02-07T00:03:57.085Z,68.54
2019-02-07T00:04:57.107Z,68.54
2019-02-07T00:05:57.053Z,69.17
2019-02-07T00:06:57.044Z,68.65
2019-02-07T00:07:57.794Z,68.44
2019-02-07T00:08:57.024Z,68.75
2019-02-07T00:09:57.035Z,68.75
2019-02-07T00:10:56.999Z,69.48
2019-02-07T00:11:57.060Z,69.48
2019-02-07T00:12:56.983Z,68.78
2019-02-07T00:13:56.972Z,69.40
2019-02-07T00:14:57.107Z,68.99
2019-02-07T00:15:56.945Z,69.30
2019-02-07T00:16:56.941Z,68.88
2019-02-07T00:17:56.931Z,69.40
2019-02-07T00:18:56.911Z,69.20
2019-02-07T00:19:56.907Z,69.30
2019-02-07T00:20:56.957Z,69.40
2019-02-07T00:21:56.880Z,69.40
2019-02-07T00:22:56.869Z,68.78
2019-02-07T00:23:56.862Z,69.23
2019-02-07T00:24:56.852Z,69.30
2019-02-07T00:25:56.842Z,69.30
2019-02-07T00:26:56.835Z,69.12
2019-02-07T00:27:56.816Z,69.61
2019-02-07T00:28:56.808Z,68.78
2019-02-07T00:29:56.800Z,69.02
2019-02-07T00:30:56.793Z,68.78
2019-02-07T00:31:56.781Z,69.02
2019-02-07T00:32:56.768Z,69.02
2019-02-07T00:33:56.756Z,69.51
2019-02-07T00:34:56.746Z,69.64
2019-02-07T00:35:56.779Z,69.33
2019-02-07T00:36:56.779Z,69.43
2019-02-07T00:37:56.709Z,69.43
2019-02-07T00:38:56.755Z,69.23
2019-02-07T00:39:56.685Z,69.26
2019-02-07T00:40:56.677Z,68.91
2019-02-07T00:41:56.711Z,69.47
2019-02-07T00:42:56.656Z,70.51
2019-02-07T00:43:56.653Z,69.47
2019-02-07T00:44:56.639Z,69.47
2019-02-07T00:45:56.796Z,68.95
2019-02-07T00:46:56.678Z,69.37
2019-02-07T00:47:56.629Z,69.26
2019-02-07T00:49:01.361Z,69.37
2019-02-07T00:49:56.583Z,69.57
2019-02-07T00:50:56.567Z,69.15
2019-02-07T00:51:56.556Z,69.47
2019-02-07T00:52:56.585Z,69.40
2019-02-07T00:53:56.539Z,69.29
2019-02-07T00:54:56.526Z,69.50
2019-02-07T00:55:56.514Z,69.09
2019-02-07T00:56:56.503Z,69.50
2019-02-07T00:57:56.492Z,69.26
2019-02-07T00:58:56.555Z,69.71
2019-02-07T00:59:56.474Z,68.98
2019-02-07T01:00:56.463Z,68.95
2019-02-07T01:01:56.456Z,68.77
2019-02-07T01:02:56.443Z,68.35
2019-02-07T01:03:56.432Z,68.46
2019-02-07T01:04:56.435Z,68.32
2019-02-07T01:05:56.407Z,68.12
2019-02-07T01:06:56.392Z,68.53
2019-02-07T01:07:56.384Z,68.95
2019-02-07T01:08:56.414Z,68.12
2019-02-07T01:09:56.410Z,68.22
2019-02-07T01:10:56.349Z,68.56
2019-02-07T01:11:56.339Z,68.46
2019-02-07T01:12:56.340Z,68.35
2019-02-07T01:13:56.320Z,68.88
2019-02-07T01:15:02.171Z,68.35
2019-02-07T01:15:57.295Z,67.94
2019-02-07T01:16:56.291Z,67.73
2019-02-07T01:17:56.281Z,67.63
2019-02-07T01:18:56.333Z,68.98
2019-02-07T01:19:56.276Z,68.46
2019-02-07T01:20:56.279Z,69.09
2019-02-07T01:21:56.242Z,68.15
2019-02-07T01:22:56.225Z,68.35
2019-02-07T01:23:56.217Z,68.15
2019-02-07T01:24:56.197Z,68.25
2019-02-07T01:25:56.193Z,68.38
2019-02-07T01:26:56.222Z,68.18
2019-02-07T01:27:56.184Z,68.28
2019-02-07T01:28:56.157Z,68.91
2019-02-07T01:29:56.148Z,69.43
2019-02-07T01:30:56.191Z,69.22
2019-02-07T01:31:56.151Z,68.70
2019-02-07T01:32:56.116Z,68.80
2019-02-07T01:33:56.104Z,68.60
2019-02-07T01:34:56.096Z,69.12
2019-02-07T01:35:56.084Z,69.35
2019-02-07T01:36:56.079Z,69.04
2019-02-07T01:37:56.062Z,69.46
2019-02-07T01:38:56.046Z,69.56
2019-02-07T01:39:56.036Z,69.67
2019-02-07T01:40:56.031Z,69.56
2019-02-07T01:41:56.097Z,69.25
2019-02-07T01:42:56.066Z,69.46
2019-02-07T01:43:55.996Z,69.56
2019-02-07T01:44:55.985Z,69.46
2019-02-07T01:45:55.972Z,69.15
2019-02-07T01:46:55.962Z,69.46
2019-02-07T01:47:55.988Z,69.35
2019-02-07T01:48:55.937Z,69.46
2019-02-07T01:49:55.932Z,69.98
2019-02-07T01:50:55.918Z,70.29
2019-02-07T01:51:55.903Z,69.15
2019-02-07T01:52:55.923Z,69.56
2019-02-07T01:53:55.883Z,69.46
2019-02-07T01:54:55.874Z,69.25
2019-02-07T01:55:55.863Z,69.35
2019-02-07T01:56:55.854Z,69.35
2019-02-07T01:57:55.852Z,69.56
2019-02-07T01:58:55.913Z,70.40
2019-02-07T01:59:55.826Z,69.98
2019-02-07T02:00:55.811Z,69.67
2019-02-07T02:01:55.805Z,70.19
2019-02-07T02:02:55.791Z,70.09
2019-02-07T02:03:55.774Z,69.87
2019-02-07T02:04:55.823Z,70.32
2019-02-07T02:05:55.752Z,70.43
2019-02-07T02:06:55.743Z,70.29
2019-02-07T02:07:55.742Z,70.43
2019-02-07T02:08:55.723Z,70.61
2019-02-07T02:09:55.709Z,70.22
2019-02-07T02:10:55.717Z,70.53
2019-02-07T02:11:55.696Z,70.61
2019-02-07T02:12:55.678Z,70.84
2019-02-07T02:13:55.707Z,70.22
2019-02-07T02:14:55.652Z,70.22
2019-02-07T02:15:55.674Z,70.22
2019-02-07T02:16:55.636Z,70.43
2019-02-07T02:17:55.631Z,70.64
2019-02-07T02:18:55.695Z,70.19
2019-02-07T02:19:55.601Z,68.94
2019-02-07T02:21:02.316Z,69.70
2019-02-07T02:21:55.583Z,70.32
2019-02-07T02:22:55.569Z,70.50
2019-02-07T02:23:55.563Z,69.28
2019-02-07T02:24:55.560Z,69.91
2019-02-07T02:25:55.571Z,70.43
2019-02-07T02:26:55.523Z,70.43
2019-02-07T02:27:55.518Z,70.64
2019-02-07T02:28:55.504Z,70.74
2019-02-07T02:29:55.499Z,70.88
2019-02-07T02:30:55.484Z,70.56
2019-02-07T02:31:55.487Z,70.78
2019-02-07T02:32:55.459Z,70.67
2019-02-07T02:33:55.457Z,70.67
2019-02-07T02:34:55.446Z,70.25
2019-02-07T02:35:55.456Z,70.46
2019-02-07T02:36:55.430Z,70.56
2019-02-07T02:37:55.409Z,70.67
2019-02-07T02:38:55.395Z,70.78
2019-02-07T02:39:55.386Z,70.81
2019-02-07T02:40:55.432Z,71.43
2019-02-07T02:41:55.389Z,71.30
2019-02-07T02:42:55.352Z,71.61
2019-02-07T02:43:55.343Z,70.67
2019-02-07T02:44:55.335Z,70.81
2019-02-07T02:45:55.328Z,71.12
2019-02-07T02:46:55.363Z,71.71
2019-02-07T02:47:55.302Z,71.01
2019-02-07T02:48:55.288Z,70.70
2019-02-07T02:49:55.273Z,70.91
2019-02-07T02:50:55.264Z,71.12
2019-02-07T02:51:55.257Z,71.43
2019-02-07T02:52:55.283Z,70.70
2019-02-07T02:53:55.242Z,70.70
2019-02-07T02:54:55.226Z,70.60
2019-02-07T02:55:55.217Z,70.81
2019-02-07T02:56:55.202Z,70.60
2019-02-07T02:57:55.192Z,70.60
2019-02-07T02:58:55.262Z,70.60
2019-02-07T02:59:55.184Z,70.70
2019-02-07T03:00:55.161Z,70.70
2019-02-07T03:01:55.146Z,70.39
2019-02-07T03:02:55.142Z,70.70
2019-02-07T03:03:55.140Z,70.50
2019-02-07T03:04:55.202Z,70.60
2019-02-07T03:05:55.140Z,70.18
2019-02-07T03:06:55.101Z,70.07
2019-02-07T03:07:55.082Z,69.24
2019-02-07T03:08:55.073Z,70.04
2019-02-07T03:09:55.061Z,69.56
2019-02-07T03:10:55.046Z,69.13
2019-02-07T03:11:55.078Z,70.18
2019-02-07T03:12:55.039Z,69.56
2019-02-07T03:13:55.028Z,69.31
2019-02-07T03:14:55.018Z,69.56
2019-02-07T03:15:55.000Z,69.13
2019-02-07T03:16:54.988Z,69.03
2019-02-07T03:17:54.970Z,70.39
2019-02-07T03:18:54.965Z,69.76
2019-02-07T03:19:54.995Z,69.35
2019-02-07T03:20:54.945Z,69.56
2019-02-07T03:21:54.928Z,69.76
2019-02-07T03:22:54.917Z,69.56
2019-02-07T03:23:54.906Z,70.28
2019-02-07T03:24:54.897Z,69.35
2019-02-07T03:25:54.930Z,69.56
2019-02-07T03:26:54.882Z,69.13
2019-02-07T03:27:54.874Z,69.35
2019-02-07T03:28:54.855Z,69.76
2019-02-07T03:29:54.854Z,69.35
2019-02-07T03:30:54.837Z,69.35
2019-02-07T03:31:54.851Z,69.13
2019-02-07T03:32:54.811Z,69.24
2019-02-07T03:33:54.815Z,69.45
2019-02-07T03:34:54.788Z,69.45
2019-02-07T03:35:54.810Z,69.38
2019-02-07T03:36:54.783Z,69.69
2019-02-07T03:37:54.755Z,69.27
2019-02-07T03:38:54.749Z,70.21
2019-02-07T03:39:54.737Z,70.42
2019-02-07T03:40:54.731Z,70.50
2019-02-07T03:41:54.729Z,70.53
2019-02-07T03:42:54.705Z,70.63
2019-02-07T03:43:54.699Z,70.42
2019-02-07T03:44:54.682Z,70.53
2019-02-07T03:46:02.872Z,69.79
2019-02-07T03:46:55.673Z,70.45
2019-02-07T03:47:54.648Z,70.73
2019-02-07T03:48:54.677Z,70.73
2019-02-07T03:49:54.627Z,70.73
2019-02-07T03:50:54.619Z,70.42
2019-02-07T03:51:54.605Z,70.00
2019-02-07T03:52:54.596Z,70.63
2019-02-07T03:53:54.629Z,70.53
2019-02-07T03:54:54.595Z,70.11
2019-02-07T03:55:54.573Z,69.51
2019-02-07T03:56:54.553Z,69.27
2019-02-07T03:57:54.548Z,69.27
2019-02-07T03:58:54.615Z,69.69
2019-02-07T03:59:54.515Z,70.32
2019-02-07T04:00:54.507Z,69.31
2019-02-07T04:01:54.494Z,70.32
2019-02-07T04:02:54.485Z,69.79
2019-02-07T04:03:54.485Z,70.00
2019-02-07T04:04:54.473Z,69.48
2019-02-07T04:05:54.452Z,69.20
2019-02-07T04:06:54.471Z,69.79
2019-02-07T04:07:54.438Z,69.48
2019-02-07T04:08:54.440Z,69.90
2019-02-07T04:09:54.434Z,69.62
2019-02-07T04:10:54.398Z,69.20
2019-02-07T04:11:54.391Z,69.59
2019-02-07T04:12:54.385Z,70.35
2019-02-07T04:13:54.365Z,69.20
2019-02-07T04:14:54.354Z,70.25
2019-02-07T04:15:54.372Z,70.56
2019-02-07T04:16:54.333Z,70.35
2019-02-07T04:17:54.325Z,70.45
2019-02-07T04:18:54.317Z,70.35
2019-02-07T04:19:54.306Z,70.04
2019-02-07T04:20:54.330Z,69.93
2019-02-07T04:21:54.284Z,69.41
2019-02-07T04:22:54.296Z,69.62
2019-02-07T04:23:54.256Z,69.62
2019-02-07T04:24:54.249Z,69.20
2019-02-07T04:25:54.246Z,69.20
2019-02-07T04:26:54.228Z,69.72
2019-02-07T04:27:54.222Z,69.82
2019-02-07T04:28:54.209Z,69.20
2019-02-07T04:29:54.191Z,69.51
2019-02-07T04:30:54.199Z,69.41
2019-02-07T04:31:54.182Z,69.20
2019-02-07T04:32:54.188Z,70.04
2019-02-07T04:33:54.153Z,69.82
2019-02-07T04:34:54.137Z,69.31
2019-02-07T04:35:54.139Z,69.51
2019-02-07T04:36:54.116Z,69.41
2019-02-07T04:37:54.127Z,69.72
2019-02-07T04:38:54.093Z,69.62
2019-02-07T04:39:54.086Z,69.54
2019-02-07T04:40:54.076Z,69.34
2019-02-07T04:41:54.060Z,69.76
2019-02-07T04:42:54.133Z,69.44
2019-02-07T04:43:54.038Z,69.41
2019-02-07T04:44:54.033Z,69.76
2019-02-07T04:45:54.019Z,69.44
2019-02-07T04:46:54.010Z,69.76
2019-02-07T04:47:54.000Z,69.86
2019-02-07T04:48:53.997Z,69.65
2019-02-07T04:49:53.978Z,69.54
2019-02-07T04:50:53.965Z,69.65
2019-02-07T04:51:53.958Z,69.76
2019-02-07T04:52:53.944Z,69.76
2019-02-07T04:53:53.989Z,69.23
2019-02-07T04:54:53.924Z,69.34
2019-02-07T04:55:53.915Z,69.34
2019-02-07T04:56:53.907Z,69.86
2019-02-07T04:57:53.893Z,69.23
2019-02-07T04:58:53.883Z,69.54
2019-02-07T04:59:53.903Z,69.34
2019-02-07T05:00:53.851Z,69.34
2019-02-07T05:01:53.851Z,70.59
2019-02-07T05:02:53.836Z,70.48
2019-02-07T05:03:53.820Z,70.59
2019-02-07T05:04:53.860Z,70.28
2019-02-07T05:05:53.801Z,70.59
2019-02-07T05:06:53.796Z,70.38
2019-02-07T05:07:53.779Z,69.86
2019-02-07T05:08:53.767Z,70.38
2019-02-07T05:09:53.757Z,70.48
2019-02-07T05:10:53.768Z,70.38
2019-02-07T05:11:53.739Z,70.48
2019-02-07T05:12:53.722Z,70.59
2019-02-07T05:13:53.713Z,70.52
2019-02-07T05:14:53.699Z,70.48
2019-02-07T05:15:53.775Z,70.28
2019-02-07T05:16:53.684Z,70.48
2019-02-07T05:17:53.667Z,70.59
2019-02-07T05:18:53.661Z,70.59
2019-02-07T05:19:53.649Z,70.38
2019-02-07T05:20:53.633Z,70.28
2019-02-07T05:21:53.650Z,69.86
2019-02-07T05:22:53.617Z,69.65
2019-02-07T05:23:53.600Z,69.44
2019-02-07T05:24:53.590Z,69.76
2019-02-07T05:25:53.620Z,69.65
2019-02-07T05:26:53.575Z,69.65
2019-02-07T05:27:53.595Z,69.86
2019-02-07T05:28:53.549Z,69.76
2019-02-07T05:29:53.536Z,69.54
2019-02-07T05:30:53.527Z,69.34
2019-02-07T05:31:53.622Z,68.82
2019-02-07T05:32:53.506Z,69.76
2019-02-07T05:33:53.496Z,69.76
2019-02-07T05:34:53.480Z,69.23
2019-02-07T05:35:53.469Z,68.82
2019-02-07T05:36:53.462Z,68.82
2019-02-07T05:37:53.478Z,68.60
2019-02-07T05:38:53.440Z,68.50
2019-02-07T05:39:53.433Z,69.34
2019-02-07T05:40:53.422Z,69.02
2019-02-07T05:41:53.409Z,68.71
2019-02-07T05:42:53.421Z,68.71
2019-02-07T05:43:53.422Z,69.13
2019-02-07T05:44:53.376Z,68.92
2019-02-07T05:45:53.360Z,69.34
2019-02-07T05:46:53.354Z,69.86
2019-02-07T05:47:53.392Z,69.54
2019-02-07T05:48:53.330Z,69.96
2019-02-07T05:49:53.315Z,69.65
2019-02-07T05:50:53.321Z,69.34
2019-02-07T05:51:53.301Z,69.86
2019-02-07T05:52:53.300Z,69.65
2019-02-07T05:53:53.301Z,69.34
2019-02-07T05:54:53.272Z,69.13
2019-02-07T05:55:53.256Z,69.54
2019-02-07T05:56:53.244Z,69.23
2019-02-07T05:57:53.230Z,68.71
2019-02-07T05:58:53.266Z,69.02
2019-02-07T05:59:53.215Z,69.23
2019-02-07T06:00:53.199Z,68.82
2019-02-07T06:01:53.188Z,68.50
2019-02-07T06:02:53.178Z,68.60
2019-02-07T06:03:53.207Z,68.92
2019-02-07T06:04:53.155Z,68.50
2019-02-07T06:05:53.144Z,68.40
2019-02-07T06:06:53.129Z,68.71
2019-02-07T06:07:53.124Z,68.82
2019-02-07T06:08:53.130Z,68.40
2019-02-07T06:09:53.120Z,67.77
2019-02-07T06:10:53.089Z,67.77
2019-02-07T06:11:53.079Z,67.98
2019-02-07T06:12:53.067Z,68.40
2019-02-07T06:13:53.058Z,67.77
2019-02-07T06:14:53.047Z,68.19
2019-02-07T06:15:53.043Z,69.13
2019-02-07T06:17:02.274Z,68.92
2019-02-07T06:17:54.007Z,68.29
2019-02-07T06:18:53.003Z,68.40
2019-02-07T06:19:53.096Z,68.19
2019-02-07T06:20:52.980Z,68.08
2019-02-07T06:21:52.969Z,68.60
2019-02-07T06:22:52.956Z,68.29
2019-02-07T06:23:52.950Z,67.98
2019-02-07T06:24:52.932Z,68.26
2019-02-07T06:25:52.935Z,68.16
2019-02-07T06:26:52.919Z,68.19
2019-02-07T06:27:52.900Z,68.37
2019-02-07T06:28:52.898Z,68.37
2019-02-07T06:29:52.882Z,67.22
2019-02-07T06:30:52.888Z,67.85
2019-02-07T06:31:52.857Z,67.66
2019-02-07T06:32:52.847Z,68.16
2019-02-07T06:33:52.840Z,68.16
2019-02-07T06:34:52.848Z,67.74
2019-02-07T06:35:52.874Z,67.85
2019-02-07T06:36:52.810Z,67.74
2019-02-07T06:37:52.799Z,68.26
2019-02-07T06:38:52.785Z,68.26
2019-02-07T06:39:52.773Z,68.37
2019-02-07T06:40:52.821Z,68.16
2019-02-07T06:41:52.793Z,67.95
2019-02-07T06:42:52.736Z,67.22
2019-02-07T06:43:52.739Z,68.26
2019-02-07T06:44:52.714Z,67.32
2019-02-07T06:45:52.708Z,68.13
2019-02-07T06:46:52.695Z,67.11
2019-02-07T06:47:52.714Z,67.74
2019-02-07T06:48:52.759Z,68.05
2019-02-07T06:49:52.661Z,67.11
2019-02-07T06:50:52.651Z,67.11
2019-02-07T06:51:52.649Z,67.85
2019-02-07T06:52:52.709Z,68.13
2019-02-07T06:53:52.618Z,67.63
2019-02-07T06:54:52.615Z,67.71
2019-02-07T06:55:52.602Z,67.08
2019-02-07T06:56:52.583Z,67.74
2019-02-07T06:57:52.572Z,67.08
2019-02-07T06:58:55.172Z,68.13
2019-02-07T06:59:52.561Z,67.29
2019-02-07T07:00:52.554Z,67.40
2019-02-07T07:01:52.528Z,67.60
2019-02-07T07:02:52.522Z,67.29
2019-02-07T07:03:52.552Z,67.92
2019-02-07T07:04:52.497Z,67.92
2019-02-07T07:05:52.486Z,67.68
2019-02-07T07:06:52.481Z,67.47
2019-02-07T07:07:52.467Z,67.40
2019-02-07T07:08:52.453Z,67.36
2019-02-07T07:09:52.468Z,67.36
2019-02-07T07:10:52.438Z,67.47
2019-02-07T07:11:52.426Z,67.26
2019-02-07T07:12:52.414Z,67.36
2019-02-07T07:13:52.404Z,67.26
2019-02-07T07:14:52.488Z,66.63
2019-02-07T07:15:52.383Z,66.95
2019-02-07T07:16:52.369Z,66.85
2019-02-07T07:17:52.361Z,66.53
2019-02-07T07:18:52.348Z,66.85
2019-02-07T07:19:52.341Z,66.74
2019-02-07T07:20:52.354Z,66.95
2019-02-07T07:21:52.314Z,66.95
2019-02-07T07:22:52.302Z,66.32
2019-02-07T07:23:52.297Z,67.16
2019-02-07T07:24:52.289Z,66.53
2019-02-07T07:25:52.283Z,66.11
2019-02-07T07:26:52.270Z,66.53
2019-02-07T07:27:52.251Z,66.63
2019-02-07T07:28:52.238Z,66.85
2019-02-07T07:29:52.254Z,66.63
2019-02-07T07:30:52.226Z,66.92
2019-02-07T07:31:52.207Z,66.74
2019-02-07T07:32:52.195Z,66.01
2019-02-07T07:33:52.188Z,66.29
2019-02-07T07:34:52.178Z,66.32
2019-02-07T07:35:52.184Z,66.39
2019-02-07T07:36:52.193Z,66.60
2019-02-07T07:37:52.138Z,66.42
2019-02-07T07:38:52.128Z,66.39
2019-02-07T07:39:52.120Z,65.98
2019-02-07T07:40:52.111Z,66.74
2019-02-07T07:41:52.104Z,66.42
2019-02-07T07:42:52.100Z,67.16
2019-02-07T07:43:52.087Z,66.95
2019-02-07T07:44:52.069Z,67.16
2019-02-07T07:45:52.056Z,66.85
2019-02-07T07:46:52.041Z,66.85
2019-02-07T07:47:52.068Z,66.85
2019-02-07T07:48:52.020Z,67.47
2019-02-07T07:49:52.014Z,66.74
2019-02-07T07:50:52.028Z,66.74
2019-02-07T07:51:51.988Z,67.47
2019-02-07T07:52:51.980Z,66.74
2019-02-07T07:53:51.987Z,66.74
2019-02-07T07:54:51.955Z,66.63
2019-02-07T07:55:51.985Z,66.63
2019-02-07T07:56:51.937Z,66.95
2019-02-07T07:57:51.950Z,66.85
2019-02-07T07:58:51.920Z,66.74
2019-02-07T07:59:51.900Z,66.85
2019-02-07T08:00:51.892Z,66.74
2019-02-07T08:01:51.890Z,66.74
2019-02-07T08:02:51.924Z,67.36
2019-02-07T08:03:51.857Z,66.63
2019-02-07T08:04:51.856Z,67.47
2019-02-07T08:05:53.400Z,66.92
2019-02-07T08:06:51.848Z,66.95
2019-02-07T08:07:51.814Z,66.74
2019-02-07T08:08:51.823Z,67.16
2019-02-07T08:09:51.797Z,67.23
2019-02-07T08:10:51.792Z,67.36
2019-02-07T08:11:51.784Z,66.71
2019-02-07T08:12:51.767Z,66.95
2019-02-07T08:13:51.806Z,67.05
2019-02-07T08:14:51.736Z,67.02
2019-02-07T08:15:51.729Z,66.71
2019-02-07T08:16:51.725Z,67.13
2019-02-07T08:17:51.711Z,66.60
2019-02-07T08:18:51.695Z,67.13
2019-02-07T08:19:51.700Z,66.82
2019-02-07T08:20:51.675Z,66.82
2019-02-07T08:21:51.668Z,67.13
2019-02-07T08:22:51.653Z,66.82
2019-02-07T08:23:51.640Z,66.68
2019-02-07T08:24:51.660Z,66.68
2019-02-07T08:25:51.643Z,66.05
2019-02-07T08:26:51.617Z,66.68
2019-02-07T08:27:51.605Z,65.64
2019-02-07T08:28:51.585Z,65.74
2019-02-07T08:29:51.603Z,65.53
2019-02-07T08:30:51.625Z,65.84
2019-02-07T08:31:51.662Z,66.05
2019-02-07T08:32:51.541Z,65.95
2019-02-07T08:33:51.539Z,66.39
2019-02-07T08:34:51.525Z,66.19
2019-02-07T08:35:51.569Z,65.95
2019-02-07T08:36:51.500Z,65.84
2019-02-07T08:37:51.504Z,65.64
2019-02-07T08:38:51.480Z,65.53
2019-02-07T08:39:51.471Z,65.43
2019-02-07T08:40:51.462Z,65.43
2019-02-07T08:41:51.474Z,65.84
2019-02-07T08:42:51.441Z,65.64
2019-02-07T08:43:51.430Z,65.33
2019-02-07T08:44:51.417Z,65.33
2019-02-07T08:45:51.459Z,65.95
2019-02-07T08:46:51.403Z,65.33
2019-02-07T08:47:58.404Z,65.11
2019-02-07T08:48:52.429Z,65.22
2019-02-07T08:49:51.359Z,65.01
2019-02-07T08:50:51.357Z,65.22
2019-02-07T08:51:51.362Z,65.40
2019-02-07T08:52:51.411Z,64.77
2019-02-07T08:53:51.320Z,64.87
2019-02-07T08:54:51.307Z,64.98
2019-02-07T08:55:51.303Z,64.77
2019-02-07T08:56:51.283Z,64.36
2019-02-07T08:57:51.272Z,64.67
2019-02-07T08:58:51.319Z,64.77
2019-02-07T08:59:51.253Z,64.77
2019-02-07T09:00:51.241Z,65.30
2019-02-07T09:01:51.231Z,64.15
2019-02-07T09:02:52.096Z,63.63
2019-02-07T09:03:51.209Z,64.36
2019-02-07T09:04:51.239Z,64.67
2019-02-07T09:05:51.192Z,64.36
2019-02-07T09:06:51.172Z,64.77
2019-02-07T09:07:51.166Z,64.43
2019-02-07T09:08:51.156Z,64.56
2019-02-07T09:09:51.187Z,64.98
2019-02-07T09:10:51.130Z,64.04
2019-02-07T09:11:51.120Z,64.25
2019-02-07T09:12:51.107Z,63.73
2019-02-07T09:13:53.741Z,64.56
2019-02-07T09:14:51.155Z,64.25
2019-02-07T09:15:51.078Z,64.22
2019-02-07T09:16:51.066Z,64.22
2019-02-07T09:17:51.057Z,64.04
2019-02-07T09:18:51.041Z,64.64
2019-02-07T09:19:51.079Z,63.70
2019-02-07T09:20:51.023Z,63.91
2019-02-07T09:21:51.009Z,63.81
2019-02-07T09:22:50.999Z,64.22
2019-02-07T09:23:50.988Z,64.01
2019-02-07T09:24:50.989Z,64.40
2019-02-07T09:25:51.026Z,63.98
2019-02-07T09:26:50.959Z,63.57
2019-02-07T09:27:50.963Z,63.15
2019-02-07T09:28:50.930Z,63.08
2019-02-07T09:29:50.927Z,63.15
2019-02-07T09:30:50.949Z,63.05
2019-02-07T09:31:50.900Z,63.23
2019-02-07T09:32:50.894Z,62.32
2019-02-07T09:33:50.904Z,62.50
2019-02-07T09:34:50.872Z,62.71
2019-02-07T09:35:50.860Z,62.16
2019-02-07T09:36:50.852Z,61.15
2019-02-07T09:37:50.836Z,61.22
2019-02-07T09:38:50.865Z,61.95
2019-02-07T09:39:50.834Z,60.47
2019-02-07T09:40:50.811Z,60.47
2019-02-07T09:41:50.798Z,60.57
2019-02-07T09:42:50.785Z,60.36
2019-02-07T09:43:50.773Z,59.33
2019-02-07T09:44:50.799Z,59.53
2019-02-07T09:45:50.753Z,59.64
2019-02-07T09:46:50.744Z,59.40
2019-02-07T09:47:50.727Z,59.92
2019-02-07T09:48:50.726Z,59.50
2019-02-07T09:49:50.746Z,58.96
2019-02-07T09:50:50.698Z,59.17
2019-02-07T09:51:50.700Z,59.27
2019-02-07T09:52:50.672Z,58.65
2019-02-07T09:53:50.684Z,58.65
2019-02-07T09:54:50.686Z,58.96
2019-02-07T09:55:50.640Z,59.06
2019-02-07T09:56:50.630Z,58.98
2019-02-07T09:57:50.626Z,59.40
2019-02-07T09:58:50.647Z,59.64
2019-02-07T09:59:50.602Z,60.36
2019-02-07T10:00:50.607Z,60.57
2019-02-07T10:01:50.595Z,60.44
2019-02-07T10:02:50.570Z,59.50
2019-02-07T10:03:50.563Z,58.96
2019-02-07T10:04:50.601Z,59.92
2019-02-07T10:05:50.534Z,59.82
2019-02-07T10:06:50.524Z,59.61
2019-02-07T10:07:50.512Z,60.34
2019-02-07T10:08:50.497Z,60.75
2019-02-07T10:09:50.494Z,59.71
2019-02-07T10:10:50.518Z,59.48
2019-02-07T10:11:50.466Z,59.06
2019-02-07T10:12:50.461Z,58.83
2019-02-07T10:13:50.448Z,57.90
2019-02-07T10:14:50.439Z,57.87
2019-02-07T10:15:50.462Z,57.22
2019-02-07T10:16:50.415Z,56.57
2019-02-07T10:17:50.407Z,55.10
2019-02-07T10:18:50.394Z,55.07
2019-02-07T10:19:50.393Z,54.55
2019-02-07T10:20:50.398Z,54.32
2019-02-07T10:21:50.354Z,54.11
2019-02-07T10:22:50.405Z,54.01
2019-02-07T10:23:50.339Z,53.47
2019-02-07T10:24:50.337Z,53.05
2019-02-07T10:25:51.412Z,52.51
2019-02-07T10:26:50.302Z,51.97
2019-02-07T10:27:50.330Z,51.45
2019-02-07T10:28:50.283Z,51.23
2019-02-07T10:29:50.268Z,50.89
2019-02-07T10:30:50.258Z,49.47
2019-02-07T10:31:50.246Z,50.20
2019-02-07T10:32:50.298Z,49.76
2019-02-07T10:33:50.299Z,48.70
2019-02-07T10:34:50.221Z,48.72
2019-02-07T10:35:50.206Z,49.65
2019-02-07T10:36:50.196Z,49.32
2019-02-07T10:37:50.182Z,49.86
2019-02-07T10:38:50.168Z,49.44
2019-02-07T10:39:50.197Z,49.70
2019-02-07T10:40:50.155Z,50.55
2019-02-07T10:41:50.140Z,51.63
2019-02-07T10:42:50.125Z,51.94
2019-02-07T10:43:50.119Z,52.77
2019-02-07T10:44:50.105Z,52.36
2019-02-07T10:45:50.133Z,52.75
2019-02-07T10:46:50.954Z,51.89
2019-02-07T10:47:50.083Z,52.02
2019-02-07T10:48:50.099Z,51.89
2019-02-07T10:49:58.901Z,51.92
2019-02-07T10:50:51.066Z,52.98
2019-02-07T10:51:50.031Z,52.67
2019-02-07T10:52:50.013Z,52.98
2019-02-07T10:53:50.045Z,52.69
2019-02-07T10:54:49.997Z,53.10
2019-02-07T10:55:49.983Z,53.00
2019-02-07T10:56:50.033Z,53.72
2019-02-07T10:57:49.964Z,53.83
2019-02-07T10:58:49.952Z,53.62
2019-02-07T10:59:49.975Z,52.87
2019-02-07T11:00:49.969Z,53.39
2019-02-07T11:01:49.921Z,53.39
2019-02-07T11:02:49.980Z,52.67
2019-02-07T11:03:49.894Z,52.46
2019-02-07T11:04:49.881Z,52.67
2019-02-07T11:05:49.875Z,52.46
2019-02-07T11:06:49.872Z,52.44
2019-02-07T11:07:49.851Z,52.23
2019-02-07T11:08:49.890Z,52.44
2019-02-07T11:09:49.827Z,52.75
2019-02-07T11:10:49.818Z,52.85
2019-02-07T11:11:49.811Z,52.44
2019-02-07T11:12:49.837Z,52.56
2019-02-07T11:13:49.787Z,52.15
2019-02-07T11:14:49.776Z,52.46
2019-02-07T11:15:49.767Z,53.28
2019-02-07T11:16:49.760Z,52.36
2019-02-07T11:17:49.740Z,52.95
2019-02-07T11:18:55.618Z,53.05
2019-02-07T11:19:50.725Z,52.95
2019-02-07T11:20:49.736Z,52.85
2019-02-07T11:21:49.700Z,52.41
2019-02-07T11:22:49.689Z,52.51
2019-02-07T11:23:49.674Z,51.48
2019-02-07T11:24:49.667Z,50.55
2019-02-07T11:25:49.693Z,51.66
2019-02-07T11:26:49.645Z,50.94
2019-02-07T11:27:49.633Z,50.09
2019-02-07T11:28:49.668Z,49.57
2019-02-07T11:29:49.703Z,49.78
2019-02-07T11:30:49.602Z,49.16
2019-02-07T11:31:49.590Z,49.55
2019-02-07T11:32:49.658Z,48.93
2019-02-07T11:33:49.564Z,47.92
2019-02-07T11:34:49.572Z,49.16
2019-02-07T11:35:49.544Z,48.33
2019-02-07T11:36:54.203Z,47.92
2019-02-07T11:37:50.567Z,48.13
2019-02-07T11:38:49.509Z,47.20
2019-02-07T11:39:49.501Z,47.49
2019-02-07T11:40:49.487Z,46.86
2019-02-07T11:41:49.485Z,47.17
2019-02-07T11:42:49.540Z,46.86
2019-02-07T11:43:49.472Z,47.49
2019-02-07T11:44:50.725Z,46.86
2019-02-07T11:45:49.430Z,47.09
2019-02-07T11:46:49.430Z,46.37
2019-02-07T11:47:49.408Z,45.34
2019-02-07T11:48:49.480Z,45.23
2019-02-07T11:49:49.422Z,45.63
2019-02-07T11:50:49.377Z,45.54
2019-02-07T11:51:49.430Z,45.86
2019-02-07T11:52:49.357Z,45.86
2019-02-07T11:53:49.345Z,45.65
2019-02-07T11:54:49.332Z,45.56
2019-02-07T11:55:49.320Z,46.93
2019-02-07T11:56:49.324Z,45.56
2019-02-07T11:57:49.339Z,45.56
2019-02-07T11:58:49.291Z,46.19
2019-02-07T11:59:49.276Z,45.87
2019-02-07T12:00:49.870Z,45.87
2019-02-07T12:01:49.255Z,45.77
2019-02-07T12:02:49.292Z,45.36
2019-02-07T12:03:49.274Z,45.36
2019-02-07T12:04:49.225Z,45.36
2019-02-07T12:05:49.211Z,44.62
2019-02-07T12:06:49.206Z,44.72
2019-02-07T12:07:49.229Z,44.82
2019-02-07T12:08:49.176Z,44.72
2019-02-07T12:09:49.174Z,44.62
2019-02-07T12:10:49.154Z,45.21
2019-02-07T12:11:49.149Z,44.26
2019-02-07T12:12:49.176Z,43.85
2019-02-07T12:13:49.120Z,43.54
2019-02-07T12:14:49.112Z,44.08
2019-02-07T12:15:49.102Z,44.59
2019-02-07T12:16:49.088Z,44.26
2019-02-07T12:17:49.109Z,44.16
2019-02-07T12:18:49.072Z,44.70
2019-02-07T12:19:49.058Z,45.42
2019-02-07T12:20:49.080Z,44.68
2019-02-07T12:21:49.040Z,45.32
2019-02-07T12:22:49.035Z,45.42
2019-02-07T12:23:49.043Z,45.19
2019-02-07T12:24:49.001Z,45.53
2019-02-07T12:25:49.003Z,44.80
2019-02-07T12:26:48.990Z,45.21
2019-02-07T12:27:48.975Z,45.03
2019-02-07T12:28:48.990Z,45.34
2019-02-07T12:29:48.955Z,45.23
2019-02-07T12:30:48.958Z,45.86
2019-02-07T12:31:48.929Z,45.96
2019-02-07T12:32:48.918Z,45.13
2019-02-07T12:33:48.923Z,45.44
2019-02-07T12:34:48.935Z,46.47
2019-02-07T12:35:48.882Z,46.06
2019-02-07T12:36:48.872Z,46.47
2019-02-07T12:37:48.868Z,45.77
2019-02-07T12:38:48.970Z,46.50
2019-02-07T12:39:48.841Z,46.60
2019-02-07T12:40:48.826Z,46.19
2019-02-07T12:41:48.815Z,46.31
2019-02-07T12:42:48.803Z,46.64
2019-02-07T12:43:48.795Z,46.21
2019-02-07T12:44:48.812Z,47.14
2019-02-07T12:45:48.788Z,46.93
2019-02-07T12:46:48.759Z,46.93
2019-02-07T12:47:48.757Z,46.93
2019-02-07T12:48:48.748Z,46.83
2019-02-07T12:49:48.774Z,46.72
2019-02-07T12:50:48.726Z,47.03
2019-02-07T12:51:48.704Z,46.83
2019-02-07T12:52:48.700Z,46.41